Cooter, MO (63839)

2:59 PM CST on February 09, 2016 (GMT -0600)
Blytheville Municipal | | Change Station
CLOSE
Current Station
Airport
Location: Blytheville Muni Airport,
Elevation: 256 ft
Nearby Weather Stations
Active Advisory: Flood Advisory

Elev 256 ft 35.94 °N, 89.83 °W | Updated 6 minutes ago

Overcast
Overcast
32 °F
Feels Like 22 °F
N
13
Wind Variable Wind from NW

Today
High -- | Low -- °F
--% Chance of Precip.
Yesterday
High -- | Low -- °F
Precip. -- in
Pressure 30.09 in
Visibility 10.0 miles
Clouds Overcast 4700 ft
Windchill 22 °F
Dew Point 14 °F
Humidity 48%
Rainfall 0.00 in
Snow Depth Not available.
6:53 AM 5:34 PM
New Moon, 2% visible
METAR KHKA 092053Z AUTO 32011KT 10SM OVC047 00/M10 A3008 RMK AO2 SLP188 T00001100 53013
Pressure 30.09 in
Visibility 10.0 miles
Clouds Overcast 4700 ft
Windchill 22 °F
Dew Point 14 °F
Humidity 48%
Rainfall 0.00 in
Snow Depth Not available.
6:53 AM 5:34 PM
New Moon, 2% visible
METAR KHKA 092053Z AUTO 32011KT 10SM OVC047 00/M10 A3008 RMK AO2 SLP188 T00001100 53013

10-Day Weather Forecast

Almanac

Astronomy

Feb. 09, 2016 Rise Set
Actual Time
Civil Twilight
Nautical Twilight
Astronomical Twilight
Moon
Length of Visible Light
Length of Day
Tomorrow will be .
, % of the Moon is Illuminated

Today's Extremes

State Highs State Lows

Community

WunderPhotos

Upload Photos

1,891,683 photos uploaded!

WunderBlog® & News

Nearby

Air Quality

  Air Quality AQ Index Pollutant
Not available.

Snow Depth

Station Depth Elevation

Earthquake Activity

City Distance Mag. Time & Date
Minimum magnitude displayed is 2.5.

Coastal Water Temperatures

Place Temperature

Stations

Nearby Weather Stations

Station Location Temp. Windchill Dew Point Humidity Wind Precip. Elev Updated Type
                   

Watches & Warnings

Flood Advisory
Issued: 12:45 PM CST Feb. 9, 2016 – National Weather Service

The Flood Advisory continues for
the Mississippi River at Caruthersville
* until Saturday February 13.
* At 12 PM Tuesday the stage was 28.8 feet.
* Flood stage is 32.0 feet.
* Forecast... the river will rise to near 29.2 feet Wednesday February
10.
* At 29.0 feet... in Tennessee, shipping operation south of Heloise is
being flooded. Chisholm Lake Road is flooded south of cocklebur
Slough. Overbank flooding begins on low lying farmland along both
banks of the Mississippi River and the Obion river in northwest
Tennessee. Old Forked Deer river bed is beginning to flood fields
in the Hales Point area south of Suggs Road. In Arkansas, roads
inside the levee south of Caruthersville, Missouri are beginning to
flood.


Lat... Lon 3623 8977 3623 8948 3606 8950 3595 8948
      3582 8956 3582 8985